createdAt,value
2022-10-07T00:02:25.972Z,95.24
2022-10-07T00:04:53.532Z,94.33
2022-10-07T00:07:20.971Z,94.05
2022-10-07T00:09:48.495Z,94.22
2022-10-07T00:12:15.935Z,95.74
2022-10-07T00:14:43.544Z,94.37
2022-10-07T00:17:11.223Z,95.41
2022-10-07T00:19:40.143Z,94.54
2022-10-07T00:22:07.608Z,95.44
2022-10-07T00:24:35.092Z,96.14
2022-10-07T00:27:02.651Z,97.06
2022-10-07T00:29:30.124Z,96.88
2022-10-07T00:31:57.704Z,96.23
2022-10-07T00:34:25.440Z,96.16
2022-10-07T00:36:54.260Z,95.89
2022-10-07T00:39:21.821Z,96.82
2022-10-07T00:41:50.666Z,96.94
2022-10-07T00:44:36.749Z,96.42
2022-10-07T00:47:05.777Z,95.40
2022-10-07T00:49:37.525Z,94.88
2022-10-07T00:52:06.449Z,97.01
2022-10-07T00:54:34.166Z,97.11
2022-10-07T00:57:01.656Z,94.96
2022-10-07T00:59:29.221Z,94.97
2022-10-07T01:01:56.815Z,94.88
2022-10-07T01:04:24.376Z,96.21
2022-10-07T01:06:51.871Z,96.29
2022-10-07T01:09:21.511Z,98.10
2022-10-07T01:11:51.863Z,96.40
2022-10-07T01:14:26.289Z,96.68
2022-10-07T01:16:58.372Z,93.94
2022-10-07T01:19:36.963Z,94.73
2022-10-07T01:22:11.468Z,95.17
2022-10-07T01:24:41.825Z,93.78
2022-10-07T01:27:15.285Z,94.43
2022-10-07T01:29:45.754Z,95.06
2022-10-07T01:32:17.285Z,93.80
2022-10-07T01:34:46.741Z,94.57
2022-10-07T01:37:16.218Z,94.01
2022-10-07T01:39:46.636Z,94.06
2022-10-07T01:42:15.512Z,94.10
2022-10-07T01:44:45.275Z,93.45
2022-10-07T01:47:12.784Z,92.56
2022-10-07T01:49:40.261Z,93.91
2022-10-07T01:52:24.035Z,92.93
2022-10-07T01:55:01.363Z,94.60
2022-10-07T01:57:35.249Z,96.42
2022-10-07T02:00:10.103Z,96.01
2022-10-07T02:02:51.986Z,95.29
2022-10-07T02:05:23.956Z,95.96
2022-10-07T02:08:02.706Z,96.03
2022-10-07T02:10:34.273Z,96.87
2022-10-07T02:13:09.241Z,95.30
2022-10-07T02:15:40.407Z,96.92
2022-10-07T02:18:09.425Z,95.51
2022-10-07T02:20:38.901Z,95.63
2022-10-07T02:23:08.735Z,95.15
2022-10-07T02:25:39.717Z,96.24
2022-10-07T02:28:10.518Z,94.64
2022-10-07T02:30:38.880Z,94.54
2022-10-07T02:33:07.854Z,93.66
2022-10-07T02:35:38.298Z,93.74
2022-10-07T02:38:09.074Z,93.96
2022-10-07T02:40:38.089Z,94.67
2022-10-07T02:43:08.372Z,95.49
2022-10-07T02:45:43.090Z,92.94
2022-10-07T02:48:15.042Z,94.40
2022-10-07T02:50:45.389Z,93.60
2022-10-07T02:53:13.838Z,96.26
2022-10-07T02:55:42.223Z,95.74
2022-10-07T02:58:11.446Z,93.04
2022-10-07T03:00:43.522Z,94.38
2022-10-07T03:03:11.035Z,94.55
2022-10-07T03:05:38.678Z,96.53
2022-10-07T03:08:08.329Z,96.76
2022-10-07T03:10:35.998Z,95.02
2022-10-07T03:13:04.860Z,97.33
2022-10-07T03:15:32.810Z,96.74
2022-10-07T03:18:01.711Z,94.57
2022-10-07T03:20:32.539Z,96.07
2022-10-07T03:23:00.406Z,96.06
2022-10-07T03:25:27.919Z,96.24
2022-10-07T03:27:55.401Z,97.61
2022-10-07T03:30:24.630Z,95.38
2022-10-07T03:32:52.234Z,95.87
2022-10-07T03:35:21.214Z,95.83
2022-10-07T03:37:48.697Z,97.06
2022-10-07T03:40:16.445Z,98.14
2022-10-07T03:42:43.956Z,95.86
2022-10-07T03:45:11.765Z,94.87
2022-10-07T03:47:39.338Z,95.42
2022-10-07T03:50:08.761Z,94.82
2022-10-07T03:52:37.732Z,95.23
2022-10-07T03:55:05.489Z,94.98
2022-10-07T03:57:53.354Z,96.43
2022-10-07T04:00:24.254Z,96.31
2022-10-07T04:02:52.140Z,95.17
2022-10-07T04:05:20.708Z,94.23
2022-10-07T04:07:50.368Z,95.17
2022-10-07T04:10:18.777Z,95.96
2022-10-07T04:12:48.064Z,94.78
2022-10-07T04:15:16.002Z,95.90
2022-10-07T04:17:44.777Z,95.83
2022-10-07T04:20:13.489Z,96.58
2022-10-07T04:22:41.030Z,94.86
2022-10-07T04:25:30.261Z,96.33
2022-10-07T04:27:58.730Z,97.55
2022-10-07T04:30:27.737Z,95.77
2022-10-07T04:32:55.582Z,97.39
2022-10-07T04:35:23.765Z,97.02
2022-10-07T04:37:51.282Z,99.14
2022-10-07T04:40:20.724Z,97.94
2022-10-07T04:43:06.286Z,97.12
2022-10-07T04:45:34.078Z,94.87
2022-10-07T04:48:01.728Z,96.96
2022-10-07T04:50:29.434Z,97.08
2022-10-07T04:52:57.220Z,94.34
2022-10-07T04:55:26.503Z,94.25
2022-10-07T04:57:54.047Z,94.50
2022-10-07T05:00:21.556Z,94.64
2022-10-07T05:02:50.460Z,94.35
2022-10-07T05:05:18.593Z,94.73
2022-10-07T05:07:50.260Z,95.96
2022-10-07T05:10:17.781Z,97.73
2022-10-07T05:12:46.746Z,98.90
2022-10-07T05:15:14.650Z,99.81
2022-10-07T05:17:43.791Z,100.00
2022-10-07T05:20:12.339Z,100.00
2022-10-07T05:22:40.150Z,100.00
2022-10-07T05:25:08.040Z,100.00
2022-10-07T05:27:35.525Z,100.00
2022-10-07T05:30:04.638Z,100.00
2022-10-07T05:32:32.118Z,100.00
2022-10-07T05:34:59.611Z,100.00
2022-10-07T05:37:27.086Z,100.00
2022-10-07T05:39:54.629Z,99.94
2022-10-07T05:42:22.178Z,99.88
2022-10-07T05:44:49.700Z,99.31
2022-10-07T05:47:18.894Z,99.35
2022-10-07T05:49:46.373Z,99.81
2022-10-07T05:52:13.862Z,100.00
2022-10-07T05:54:41.399Z,98.83
2022-10-07T05:57:09.007Z,100.00
2022-10-07T06:02:00.319Z,100.00
2022-10-07T06:04:28.486Z,99.75
2022-10-07T06:06:56.235Z,98.57
2022-10-07T06:09:41.568Z,97.83
2022-10-07T06:12:28.438Z,96.44
2022-10-07T06:14:56.166Z,97.80
2022-10-07T06:17:25.267Z,97.38
2022-10-07T06:19:52.969Z,98.29
2022-10-07T06:22:20.665Z,100.00
2022-10-07T06:24:48.405Z,100.00
2022-10-07T06:27:16.084Z,99.24
2022-10-07T06:29:43.848Z,100.00
2022-10-07T06:32:11.514Z,100.00
2022-10-07T06:34:40.620Z,100.00
2022-10-07T06:37:08.317Z,100.00
2022-10-07T06:39:36.052Z,100.00
2022-10-07T06:42:03.742Z,100.00
2022-10-07T06:44:31.488Z,100.00
2022-10-07T06:46:59.218Z,100.00
2022-10-07T06:49:26.965Z,100.00
2022-10-07T06:51:56.043Z,100.00
2022-10-07T06:54:24.714Z,100.00
2022-10-07T06:56:52.422Z,99.10
2022-10-07T06:59:20.202Z,100.00
2022-10-07T07:01:47.949Z,100.00
2022-10-07T07:04:15.713Z,100.00
2022-10-07T07:06:43.742Z,98.87
2022-10-07T07:09:12.845Z,100.00
2022-10-07T07:11:43.421Z,100.00
2022-10-07T07:14:13.578Z,100.00
2022-10-07T07:16:41.953Z,100.00
2022-10-07T07:19:13.867Z,100.00
2022-10-07T07:21:42.027Z,100.00
2022-10-07T07:24:09.935Z,100.00
2022-10-07T07:26:40.362Z,100.00
2022-10-07T07:29:08.676Z,100.00
2022-10-07T07:31:37.537Z,100.00
2022-10-07T07:34:11.260Z,100.00
2022-10-07T07:36:41.117Z,100.00
2022-10-07T07:39:11.754Z,100.00
2022-10-07T07:41:45.986Z,100.00
2022-10-07T07:44:15.778Z,100.00
2022-10-07T07:46:45.022Z,100.00
2022-10-07T07:49:14.329Z,100.00
2022-10-07T07:51:43.461Z,100.00
2022-10-07T07:54:12.049Z,100.00
2022-10-07T07:56:41.222Z,100.00
2022-10-07T07:59:09.394Z,100.00
2022-10-07T08:01:37.143Z,100.00
2022-10-07T08:04:05.130Z,100.00
2022-10-07T08:06:33.090Z,100.00
2022-10-07T08:09:00.870Z,100.00
2022-10-07T08:11:29.330Z,100.00
2022-10-07T08:13:58.395Z,100.00
2022-10-07T08:16:28.691Z,100.00
2022-10-07T08:18:58.244Z,100.00
2022-10-07T08:21:32.827Z,100.00
2022-10-07T08:24:03.897Z,100.00
2022-10-07T08:26:33.653Z,100.00
2022-10-07T08:29:03.168Z,100.00
2022-10-07T08:31:31.062Z,100.00
2022-10-07T08:34:00.963Z,100.00
2022-10-07T08:36:31.741Z,100.00
2022-10-07T08:39:00.083Z,99.43
2022-10-07T08:41:42.308Z,100.00
2022-10-07T08:44:20.301Z,100.00
2022-10-07T08:47:00.092Z,100.00
2022-10-07T08:49:36.966Z,100.00
2022-10-07T08:52:18.169Z,99.93
2022-10-07T08:54:45.934Z,97.48
2022-10-07T08:57:37.269Z,94.97
2022-10-07T09:00:09.165Z,94.74
2022-10-07T09:02:44.053Z,93.35
2022-10-07T09:05:22.123Z,92.80
2022-10-07T09:07:52.420Z,93.21
2022-10-07T09:10:31.156Z,92.05
2022-10-07T09:13:03.625Z,91.22
2022-10-07T09:15:42.510Z,90.13
2022-10-07T09:18:19.554Z,89.42
2022-10-07T09:20:53.231Z,90.44
2022-10-07T09:23:25.240Z,88.71
2022-10-07T09:25:53.450Z,88.26
2022-10-07T09:28:25.065Z,88.83
2022-10-07T09:30:54.216Z,87.63
2022-10-07T09:33:24.159Z,86.33
2022-10-07T09:35:57.563Z,86.81
2022-10-07T09:38:33.407Z,85.94
2022-10-07T09:41:17.044Z,85.31
2022-10-07T09:43:54.566Z,84.49
2022-10-07T09:46:40.406Z,84.12
2022-10-07T09:49:08.823Z,83.65
2022-10-07T09:51:39.592Z,84.11
2022-10-07T09:54:19.506Z,81.68
2022-10-07T09:56:48.324Z,80.49
2022-10-07T09:59:21.595Z,79.05
2022-10-07T10:01:55.669Z,79.27
2022-10-07T10:04:29.294Z,79.19
2022-10-07T10:07:02.094Z,77.58
2022-10-07T10:09:30.023Z,80.46
2022-10-07T10:12:13.090Z,80.05
2022-10-07T10:14:49.822Z,77.36
2022-10-07T10:17:29.510Z,78.52
2022-10-07T10:20:17.738Z,74.45
2022-10-07T10:22:45.845Z,74.11
2022-10-07T10:25:32.821Z,75.66
2022-10-07T10:28:08.443Z,72.40
2022-10-07T10:30:41.657Z,68.45
2022-10-07T10:33:20.790Z,67.44
2022-10-07T10:35:57.287Z,68.49
2022-10-07T10:38:35.189Z,65.41
2022-10-07T10:41:10.527Z,67.79
2022-10-07T10:44:04.555Z,69.03
2022-10-07T10:46:47.277Z,69.43
2022-10-07T10:49:26.003Z,68.54
2022-10-07T10:52:21.105Z,68.38
2022-10-07T10:55:01.176Z,68.67
2022-10-07T10:57:38.539Z,68.45
2022-10-07T11:00:11.182Z,69.61
2022-10-07T11:03:02.272Z,68.25
2022-10-07T11:05:33.681Z,68.68
2022-10-07T11:08:06.385Z,66.92
2022-10-07T11:10:38.405Z,68.28
2022-10-07T11:13:22.456Z,66.45
2022-10-07T11:15:56.954Z,67.77
2022-10-07T11:18:30.995Z,67.25
2022-10-07T11:21:02.786Z,66.50
2022-10-07T11:23:48.508Z,66.06
2022-10-07T11:26:22.614Z,65.30
2022-10-07T11:28:52.658Z,65.25
2022-10-07T11:31:30.519Z,64.85
2022-10-07T11:34:11.916Z,65.82
2022-10-07T11:36:52.588Z,65.82
2022-10-07T11:39:20.446Z,64.78
2022-10-07T11:41:54.233Z,63.61
2022-10-07T11:44:27.715Z,61.89
2022-10-07T11:46:58.977Z,63.64
2022-10-07T11:49:32.818Z,63.29
2022-10-07T11:52:05.698Z,62.35
2022-10-07T11:54:42.265Z,64.12
2022-10-07T11:57:22.008Z,63.10
2022-10-07T11:59:52.364Z,64.07
2022-10-07T12:02:44.939Z,61.99
2022-10-07T12:06:00.763Z,61.85
2022-10-07T12:08:33.105Z,62.50
2022-10-07T12:11:43.714Z,63.68
2022-10-07T12:14:33.090Z,61.70
2022-10-07T12:17:28.139Z,61.74
2022-10-07T12:20:33.075Z,60.96
2022-10-07T12:23:49.864Z,60.28
2022-10-07T12:26:52.764Z,59.73
2022-10-07T12:29:33.506Z,59.71
2022-10-07T12:32:01.620Z,60.19
2022-10-07T12:34:36.497Z,61.08
2022-10-07T12:37:43.399Z,59.67
2022-10-07T12:40:18.139Z,59.69
2022-10-07T12:42:54.668Z,57.06
2022-10-07T12:45:25.722Z,57.50
2022-10-07T12:47:57.887Z,58.75
2022-10-07T12:50:26.639Z,58.74
2022-10-07T12:52:58.692Z,58.41
2022-10-07T12:55:32.299Z,57.25
2022-10-07T12:58:17.362Z,56.77
2022-10-07T13:00:59.825Z,56.68
2022-10-07T13:04:03.069Z,56.22
2022-10-07T13:07:18.109Z,56.92
2022-10-07T13:10:26.745Z,58.57
2022-10-07T13:12:56.965Z,55.91
2022-10-07T13:15:41.344Z,56.22
2022-10-07T13:18:20.038Z,56.34
2022-10-07T13:21:10.894Z,55.55
2022-10-07T13:23:38.654Z,54.68
2022-10-07T13:26:06.636Z,55.18
2022-10-07T13:28:39.604Z,55.21
2022-10-07T13:31:15.678Z,52.92
2022-10-07T13:33:44.431Z,53.15
2022-10-07T13:36:18.758Z,54.15
2022-10-07T13:38:47.941Z,52.95
2022-10-07T13:41:24.661Z,53.64
2022-10-07T13:43:55.952Z,52.82
2022-10-07T13:46:27.553Z,53.40
2022-10-07T13:48:57.009Z,52.75
2022-10-07T13:51:36.576Z,53.06
2022-10-07T13:54:07.821Z,53.09
2022-10-07T13:56:40.760Z,54.12
2022-10-07T13:59:18.038Z,52.00
2022-10-07T14:01:49.712Z,52.01
2022-10-07T14:04:26.200Z,52.89
2022-10-07T14:07:00.304Z,52.11
2022-10-07T14:09:45.088Z,51.09
2022-10-07T14:12:16.018Z,51.11
2022-10-07T14:14:46.012Z,51.49
2022-10-07T14:17:28.454Z,51.87
2022-10-07T14:20:00.123Z,52.44
2022-10-07T14:22:33.987Z,52.66
2022-10-07T14:25:04.281Z,52.19
2022-10-07T14:27:53.539Z,51.77
2022-10-07T14:30:56.340Z,52.90
2022-10-07T14:33:48.351Z,51.56
2022-10-07T14:36:18.438Z,53.20
2022-10-07T14:38:47.818Z,52.86
2022-10-07T14:41:18.130Z,51.65
2022-10-07T14:43:47.836Z,53.75
2022-10-07T14:46:18.903Z,53.29
2022-10-07T14:48:49.219Z,53.60
2022-10-07T14:51:20.009Z,54.28
2022-10-07T14:53:50.519Z,54.19
2022-10-07T14:56:28.471Z,52.98
2022-10-07T14:58:56.763Z,52.68
2022-10-07T15:01:24.932Z,53.33
2022-10-07T15:03:54.050Z,53.53
2022-10-07T15:06:21.938Z,52.00
2022-10-07T15:08:50.079Z,52.10
2022-10-07T15:11:19.745Z,52.48
2022-10-07T15:13:48.496Z,51.81
2022-10-07T15:16:18.457Z,52.18
2022-10-07T15:18:51.833Z,50.20
2022-10-07T15:21:22.264Z,49.00
2022-10-07T15:23:53.150Z,48.70
2022-10-07T15:26:24.039Z,48.67
2022-10-07T15:28:53.402Z,49.89
2022-10-07T15:31:21.207Z,49.15
2022-10-07T15:33:49.256Z,50.48
2022-10-07T15:36:17.736Z,51.62
2022-10-07T15:38:46.930Z,51.74
2022-10-07T15:41:32.745Z,50.97
2022-10-07T15:44:01.560Z,51.73
2022-10-07T15:46:29.535Z,51.26
2022-10-07T15:48:59.214Z,51.53
2022-10-07T15:51:29.406Z,50.97
2022-10-07T15:53:58.909Z,50.83
2022-10-07T15:56:26.671Z,50.77
2022-10-07T15:58:54.364Z,50.08
2022-10-07T16:01:22.188Z,50.29
2022-10-07T16:03:50.780Z,49.65
2022-10-07T16:06:21.165Z,49.67
2022-10-07T16:08:49.310Z,49.80
2022-10-07T16:11:19.122Z,49.95
2022-10-07T16:13:47.950Z,50.02
2022-10-07T16:16:17.581Z,51.49
2022-10-07T16:18:47.125Z,51.88
2022-10-07T16:21:17.318Z,51.34
2022-10-07T16:23:47.291Z,51.74
2022-10-07T16:26:17.405Z,51.74
2022-10-07T16:29:05.841Z,52.24
2022-10-07T16:31:35.647Z,52.32
2022-10-07T16:34:04.072Z,52.94
2022-10-07T16:36:32.267Z,53.73
2022-10-07T16:39:01.259Z,54.27
2022-10-07T16:41:28.967Z,53.39
2022-10-07T16:43:59.248Z,54.35
2022-10-07T16:46:27.597Z,54.66
2022-10-07T16:48:55.960Z,54.75
2022-10-07T16:51:25.238Z,54.94
2022-10-07T16:53:55.677Z,54.98
2022-10-07T16:56:24.202Z,54.59
2022-10-07T16:58:57.251Z,55.19
2022-10-07T17:01:27.576Z,56.27
2022-10-07T17:03:57.302Z,57.69
2022-10-07T17:06:27.079Z,56.40
2022-10-07T17:08:56.692Z,57.43
2022-10-07T17:11:31.370Z,57.64
2022-10-07T17:14:00.871Z,59.41
2022-10-07T17:16:32.531Z,58.72
2022-10-07T17:19:00.822Z,58.37
2022-10-07T17:21:29.048Z,60.38
2022-10-07T17:23:58.535Z,59.50
2022-10-07T17:26:27.826Z,61.30
2022-10-07T17:29:03.260Z,61.25
2022-10-07T17:31:33.805Z,64.06
2022-10-07T17:34:03.183Z,63.90
2022-10-07T17:36:32.182Z,63.23
2022-10-07T17:39:00.362Z,63.97
2022-10-07T17:41:29.654Z,63.66
2022-10-07T17:43:58.850Z,66.14
2022-10-07T17:46:28.111Z,67.38
2022-10-07T17:48:59.157Z,68.39
2022-10-07T17:51:28.953Z,68.91
2022-10-07T17:53:58.095Z,69.04
2022-10-07T17:56:26.330Z,70.28
2022-10-07T17:58:54.387Z,70.32
2022-10-07T18:01:26.379Z,71.47
2022-10-07T18:03:56.179Z,72.71
2022-10-07T18:06:26.809Z,73.75
2022-10-07T18:08:54.788Z,73.62
2022-10-07T18:11:22.686Z,74.49
2022-10-07T18:14:07.907Z,75.42
2022-10-07T18:16:36.775Z,75.05
2022-10-07T18:19:04.566Z,74.93
2022-10-07T18:21:33.682Z,75.66
2022-10-07T18:24:01.570Z,75.27
2022-10-07T18:26:29.667Z,75.38
2022-10-07T18:28:58.067Z,76.19
2022-10-07T18:31:26.913Z,75.83
2022-10-07T18:33:54.731Z,75.93
2022-10-07T18:36:22.533Z,77.17
2022-10-07T18:38:51.629Z,76.45
2022-10-07T18:41:19.607Z,77.19
2022-10-07T18:43:47.639Z,77.88
2022-10-07T18:46:17.470Z,78.25
2022-10-07T18:48:47.942Z,79.26
2022-10-07T18:51:16.749Z,79.07
2022-10-07T18:53:47.412Z,79.52
2022-10-07T18:56:18.765Z,79.15
2022-10-07T18:58:48.485Z,79.71
2022-10-07T19:01:18.385Z,79.98
2022-10-07T19:03:46.617Z,80.46
2022-10-07T19:06:17.774Z,81.40
2022-10-07T19:08:46.034Z,81.55
2022-10-07T19:11:16.670Z,80.51
2022-10-07T19:13:51.901Z,81.63
2022-10-07T19:16:22.178Z,81.35
2022-10-07T19:18:52.476Z,81.90
2022-10-07T19:21:20.984Z,82.26
2022-10-07T19:23:49.539Z,83.09
2022-10-07T19:26:21.759Z,83.66
2022-10-07T19:28:50.818Z,83.69
2022-10-07T19:31:23.114Z,83.10
2022-10-07T19:33:52.663Z,84.14
2022-10-07T19:36:21.842Z,84.58
2022-10-07T19:38:52.419Z,84.82
2022-10-07T19:41:23.961Z,85.13
2022-10-07T19:43:52.762Z,86.18
2022-10-07T19:46:22.283Z,85.24
2022-10-07T19:48:50.450Z,86.36
2022-10-07T19:51:20.065Z,85.12
2022-10-07T19:53:48.415Z,86.70
2022-10-07T19:56:20.136Z,85.55
2022-10-07T19:58:51.720Z,86.74
2022-10-07T20:01:21.753Z,85.51
2022-10-07T20:03:50.074Z,86.93
2022-10-07T20:06:17.793Z,86.54
2022-10-07T20:08:47.310Z,87.40
2022-10-07T20:11:16.150Z,87.90
2022-10-07T20:13:43.870Z,87.38
2022-10-07T20:16:16.203Z,87.64
2022-10-07T20:18:44.008Z,87.39
2022-10-07T20:21:15.963Z,87.66
2022-10-07T20:23:45.529Z,87.59
2022-10-07T20:26:16.029Z,87.10
2022-10-07T20:28:43.789Z,88.17
2022-10-07T20:31:14.997Z,88.09
2022-10-07T20:33:44.589Z,88.58
2022-10-07T20:36:15.218Z,87.87
2022-10-07T20:39:00.864Z,88.56
2022-10-07T20:41:46.654Z,88.27
2022-10-07T20:44:16.225Z,88.19
2022-10-07T20:46:45.548Z,89.31
2022-10-07T20:49:22.516Z,88.34
2022-10-07T20:51:50.462Z,87.78
2022-10-07T20:54:18.604Z,88.22
2022-10-07T20:56:46.911Z,87.10
2022-10-07T20:59:15.069Z,88.02
2022-10-07T21:01:44.217Z,87.75
2022-10-07T21:04:15.538Z,89.59
2022-10-07T21:06:43.831Z,88.05
2022-10-07T21:09:12.108Z,88.71
2022-10-07T21:11:39.900Z,88.66
2022-10-07T21:14:07.661Z,87.80
2022-10-07T21:16:36.358Z,89.90
2022-10-07T21:19:04.523Z,89.85
2022-10-07T21:21:33.824Z,89.61
2022-10-07T21:24:01.585Z,89.48
2022-10-07T21:26:29.280Z,88.61
2022-10-07T21:28:56.968Z,89.18
2022-10-07T21:31:25.452Z,88.79
2022-10-07T21:33:53.423Z,88.14
2022-10-07T21:36:24.173Z,89.71
2022-10-07T21:38:58.230Z,89.56
2022-10-07T21:41:30.974Z,87.94
2022-10-07T21:43:59.344Z,88.76
2022-10-07T21:46:29.301Z,89.34
2022-10-07T21:48:57.312Z,89.68
2022-10-07T21:51:26.961Z,89.76
2022-10-07T21:53:58.054Z,89.87
2022-10-07T21:56:27.381Z,90.59
2022-10-07T21:58:55.114Z,90.65
2022-10-07T22:01:24.450Z,89.50
2022-10-07T22:03:55.449Z,89.93
2022-10-07T22:06:44.081Z,90.08
2022-10-07T22:09:13.802Z,90.25
2022-10-07T22:11:41.702Z,90.77
2022-10-07T22:14:12.743Z,90.46
2022-10-07T22:16:41.761Z,92.26
2022-10-07T22:19:10.677Z,92.28
2022-10-07T22:21:40.173Z,91.52
2022-10-07T22:24:09.416Z,91.62
2022-10-07T22:26:40.731Z,90.63
2022-10-07T22:29:10.425Z,91.59
2022-10-07T22:31:38.845Z,92.48
2022-10-07T22:34:07.656Z,92.93
2022-10-07T22:36:35.296Z,92.54
2022-10-07T22:39:03.125Z,92.17
2022-10-07T22:41:30.896Z,90.54
2022-10-07T22:44:00.021Z,92.86
2022-10-07T22:46:29.712Z,93.18
2022-10-07T22:48:58.706Z,93.12
2022-10-07T22:51:28.446Z,93.74
2022-10-07T22:53:57.634Z,93.68
2022-10-07T22:56:27.878Z,93.71
2022-10-07T22:58:58.787Z,93.51
2022-10-07T23:01:29.617Z,93.82
2022-10-07T23:03:58.713Z,94.04
2022-10-07T23:06:26.571Z,93.50
2022-10-07T23:08:55.028Z,95.08
2022-10-07T23:11:24.467Z,94.82
2022-10-07T23:13:52.664Z,94.94
2022-10-07T23:16:22.641Z,93.98
2022-10-07T23:18:53.467Z,93.87
2022-10-07T23:21:23.437Z,93.14
2022-10-07T23:23:52.909Z,93.60
2022-10-07T23:26:23.251Z,92.72
2022-10-07T23:28:52.464Z,92.97
2022-10-07T23:31:22.724Z,92.98
2022-10-07T23:33:52.906Z,93.10
2022-10-07T23:36:22.184Z,92.86
2022-10-07T23:38:51.211Z,93.02
2022-10-07T23:41:21.045Z,93.48
2022-10-07T23:43:49.687Z,94.85
2022-10-07T23:46:18.793Z,93.84
2022-10-07T23:48:47.294Z,94.78
2022-10-07T23:51:19.759Z,94.01
2022-10-07T23:53:48.191Z,95.43
2022-10-07T23:56:18.493Z,94.24
2022-10-07T23:58:46.591Z,94.69
